createdAt,value
2019-04-07T00:01:18.508Z,58.27
2019-04-07T00:03:33.314Z,59.30
2019-04-07T00:06:02.162Z,60.83
2019-04-07T00:12:25.376Z,59.10
2019-04-07T00:14:20.699Z,61.27
2019-04-07T00:16:47.413Z,60.43
2019-04-07T00:19:05.468Z,65.30
2019-04-07T00:21:35.273Z,63.43
2019-04-07T00:24:04.703Z,64.37
2019-04-07T00:26:47.779Z,65.83
2019-04-07T00:29:03.635Z,70.07
2019-04-07T00:34:22.215Z,66.40
2019-04-07T00:37:05.535Z,67.40
2019-04-07T00:39:57.834Z,71.23
2019-04-07T00:42:56.995Z,68.67
2019-04-07T00:45:27.580Z,66.93
2019-04-07T00:47:57.169Z,63.53
2019-04-07T00:50:28.333Z,63.20
2019-04-07T00:52:44.865Z,66.93
2019-04-07T00:55:05.508Z,62.77
2019-04-07T00:57:54.100Z,67.40
2019-04-07T01:00:16.465Z,66.53
2019-04-07T01:02:54.107Z,65.50
2019-04-07T01:05:20.579Z,66.47
2019-04-07T01:07:56.286Z,65.47
2019-04-07T01:10:27.449Z,65.67
2019-04-07T01:12:58.972Z,61.80
2019-04-07T01:15:22.142Z,65.87
2019-04-07T01:18:06.841Z,67.37
2019-04-07T01:20:45.196Z,66.97
2019-04-07T01:23:18.151Z,62.23
2019-04-07T01:25:34.618Z,61.10
2019-04-07T01:28:33.437Z,60.23
2019-04-07T01:36:24.973Z,62.87
2019-04-07T01:38:51.189Z,61.27
2019-04-07T01:42:02.607Z,64.30
2019-04-07T01:44:49.697Z,59.63
2019-04-07T01:47:29.388Z,61.00
2019-04-07T01:53:37.570Z,54.03
2019-04-07T02:02:03.522Z,63.20
2019-04-07T02:04:24.991Z,59.77
2019-04-07T02:07:07.313Z,64.20
2019-04-07T02:09:44.396Z,60.03
2019-04-07T02:12:44.273Z,61.17
2019-04-07T02:15:53.771Z,61.67
2019-04-07T02:18:23.462Z,60.80
2019-04-07T02:21:07.199Z,60.67
2019-04-07T02:27:02.607Z,67.80
2019-04-07T02:30:04.023Z,66.60
2019-04-07T02:32:51.114Z,66.00
2019-04-07T02:35:37.856Z,70.60
2019-04-07T02:38:17.683Z,68.73
2019-04-07T02:41:26.109Z,72.43
2019-04-07T02:46:49.503Z,72.27
2019-04-07T02:49:32.234Z,74.60
2019-04-07T02:52:00.246Z,78.27
2019-04-07T02:54:46.320Z,74.83
2019-04-07T02:57:16.593Z,77.33
2019-04-07T02:59:55.821Z,73.90
2019-04-07T03:02:34.640Z,77.60
2019-04-07T03:05:29.609Z,81.97
2019-04-07T03:08:21.123Z,78.60
2019-04-07T03:14:47.616Z,77.50
2019-04-07T03:17:20.137Z,75.37
2019-04-07T03:20:13.989Z,81.60
2019-04-07T03:23:29.473Z,74.97
2019-04-07T03:26:02.300Z,77.37
2019-04-07T03:28:44.844Z,77.60
2019-04-07T03:34:44.624Z,76.33
2019-04-07T03:37:43.976Z,79.50
2019-04-07T03:40:32.348Z,79.17
2019-04-07T03:43:42.706Z,77.60
2019-04-07T03:46:30.631Z,76.37
2019-04-07T03:49:21.272Z,81.77
2019-04-07T03:52:11.585Z,83.00
2019-04-07T03:54:46.636Z,82.63
2019-04-07T03:57:54.795Z,80.87
2019-04-07T04:01:14.089Z,83.73
2019-04-07T04:03:48.590Z,83.67
2019-04-07T04:06:35.302Z,82.40
2019-04-07T04:09:13.892Z,78.40
2019-04-07T04:15:03.563Z,81.90
2019-04-07T04:17:23.094Z,82.10
2019-04-07T04:20:28.318Z,80.50
2019-04-07T04:22:59.807Z,83.70
2019-04-07T04:25:25.152Z,85.13
2019-04-07T04:28:04.929Z,81.37
2019-04-07T04:30:39.950Z,87.70
2019-04-07T04:33:15.919Z,86.93
2019-04-07T04:35:49.825Z,90.77
2019-04-07T04:38:25.089Z,84.90
2019-04-07T04:41:10.003Z,92.50
2019-04-07T04:43:42.813Z,89.00
2019-04-07T04:46:10.999Z,89.10
2019-04-07T04:48:32.166Z,91.67
2019-04-07T04:51:00.442Z,90.67
2019-04-07T04:53:19.785Z,85.13
2019-04-07T04:58:27.059Z,90.73
2019-04-07T05:00:48.473Z,84.80
2019-04-07T05:03:10.505Z,83.80
2019-04-07T05:05:53.510Z,82.50
2019-04-07T05:11:26.743Z,84.87
2019-04-07T05:14:06.088Z,83.47
2019-04-07T05:16:46.023Z,82.87
2019-04-07T05:19:10.869Z,75.27
2019-04-07T05:21:39.496Z,70.77
2019-04-07T05:24:11.481Z,64.57
2019-04-07T05:26:46.481Z,56.03
2019-04-07T05:29:10.472Z,49.63
2019-04-07T05:32:13.127Z,48.50
2019-04-07T05:34:34.585Z,47.33
2019-04-07T05:37:09.839Z,42.90
2019-04-07T05:39:58.091Z,45.23
2019-04-07T05:42:56.628Z,45.10
2019-04-07T05:46:08.051Z,47.70
2019-04-07T05:48:42.006Z,45.43
2019-04-07T05:51:37.345Z,43.70
2019-04-07T05:54:22.501Z,43.10
2019-04-07T05:57:00.345Z,38.80
2019-04-07T06:02:45.842Z,38.07
2019-04-07T06:07:35.685Z,35.80
2019-04-07T06:10:35.829Z,35.90
2019-04-07T06:12:50.832Z,37.20
2019-04-07T06:15:54.021Z,35.70
2019-04-07T06:18:08.344Z,34.80
2019-04-07T06:20:50.655Z,34.77
2019-04-07T06:23:06.187Z,37.33
2019-04-07T06:25:22.736Z,33.60
2019-04-07T06:28:17.219Z,35.57
2019-04-07T06:30:42.889Z,36.43
2019-04-07T06:36:13.281Z,34.63
2019-04-07T06:38:51.440Z,38.20
2019-04-07T06:41:27.359Z,36.70
2019-04-07T06:43:38.472Z,36.00
2019-04-07T06:46:09.518Z,36.80
2019-04-07T06:48:33.712Z,36.43
2019-04-07T06:51:19.198Z,38.87
2019-04-07T06:53:52.436Z,36.73
2019-04-07T06:56:16.545Z,35.20
2019-04-07T06:59:16.571Z,34.67
2019-04-07T07:01:49.325Z,33.00
2019-04-07T07:04:23.208Z,34.17
2019-04-07T07:06:53.621Z,34.33
2019-04-07T07:09:20.108Z,30.53
2019-04-07T07:11:42.317Z,31.77
2019-04-07T07:14:03.232Z,33.50
2019-04-07T07:16:29.940Z,30.83
2019-04-07T07:19:01.650Z,30.47
2019-04-07T07:21:28.663Z,29.90
2019-04-07T07:24:01.256Z,29.17
2019-04-07T07:26:11.573Z,28.40
2019-04-07T07:28:44.979Z,30.13
2019-04-07T07:31:05.309Z,26.93
2019-04-07T07:35:57.078Z,29.13
2019-04-07T07:38:15.863Z,28.33
2019-04-07T07:42:30.719Z,27.00
2019-04-07T07:44:03.195Z,25.00
2019-04-07T07:46:23.833Z,28.60
2019-04-07T07:48:48.559Z,26.10
2019-04-07T07:51:13.066Z,25.10
2019-04-07T07:54:27.743Z,25.93
2019-04-07T07:57:11.227Z,24.00
2019-04-07T07:59:46.411Z,22.97
2019-04-07T08:01:51.681Z,23.50
2019-04-07T08:04:35.580Z,23.50
2019-04-07T08:07:37.291Z,24.00
2019-04-07T08:10:40.051Z,21.80
2019-04-07T08:17:43.636Z,23.40
2019-04-07T08:20:37.484Z,20.00
2019-04-07T08:26:48.776Z,21.30
2019-04-07T08:29:29.193Z,20.70
2019-04-07T08:37:35.211Z,19.80
2019-04-07T08:43:02.589Z,21.37
2019-04-07T08:45:14.551Z,21.90
2019-04-07T08:47:22.131Z,20.57
2019-04-07T08:49:24.131Z,23.93
2019-04-07T08:51:39.343Z,21.10
2019-04-07T08:53:45.116Z,20.37
2019-04-07T08:56:27.812Z,22.20
2019-04-07T08:58:36.145Z,22.50
2019-04-07T09:00:46.501Z,20.50
2019-04-07T09:05:47.847Z,22.70
2019-04-07T09:07:51.888Z,21.83
2019-04-07T09:10:24.736Z,23.33
2019-04-07T09:12:45.200Z,21.20
2019-04-07T09:17:55.531Z,20.73
2019-04-07T09:20:40.300Z,19.60
2019-04-07T09:23:16.403Z,20.70
2019-04-07T09:25:42.050Z,19.50
2019-04-07T09:27:52.524Z,18.43
2019-04-07T09:30:45.734Z,18.20
2019-04-07T09:33:26.951Z,18.37
2019-04-07T09:35:59.209Z,17.03
2019-04-07T09:38:52.343Z,18.00
2019-04-07T09:41:43.148Z,16.43
2019-04-07T09:44:40.227Z,17.63
2019-04-07T09:47:47.766Z,17.90
2019-04-07T09:50:20.446Z,18.00
2019-04-07T09:52:46.182Z,17.50
2019-04-07T09:55:29.966Z,16.90
2019-04-07T09:58:13.488Z,17.87
2019-04-07T10:01:32.996Z,17.70
2019-04-07T10:04:11.902Z,16.43
2019-04-07T10:07:11.144Z,16.67
2019-04-07T10:10:04.601Z,17.50
2019-04-07T10:12:24.817Z,17.63
2019-04-07T10:15:31.681Z,15.60
2019-04-07T10:18:06.320Z,17.57
2019-04-07T10:20:28.632Z,18.43
2019-04-07T10:23:33.641Z,18.63
2019-04-07T10:26:13.063Z,17.40
2019-04-07T10:28:43.064Z,20.57
2019-04-07T10:31:50.860Z,17.87
2019-04-07T10:34:27.368Z,19.60
2019-04-07T10:40:57.862Z,18.43
2019-04-07T10:41:32.693Z,18.80
2019-04-07T10:43:50.373Z,19.93
2019-04-07T10:46:17.924Z,19.43
2019-04-07T10:48:44.460Z,18.90
2019-04-07T10:51:07.896Z,18.73
2019-04-07T10:53:33.139Z,18.37
2019-04-07T10:55:52.168Z,18.03
2019-04-07T10:58:19.847Z,17.93
2019-04-07T11:00:41.156Z,19.80
2019-04-07T11:02:55.491Z,18.40
2019-04-07T11:05:27.011Z,18.73
2019-04-07T11:07:44.285Z,19.90
2019-04-07T11:10:29.715Z,19.93
2019-04-07T11:12:51.347Z,21.90
2019-04-07T11:15:23.776Z,21.40
2019-04-07T11:17:57.028Z,22.20
2019-04-07T11:20:23.177Z,23.30
2019-04-07T11:22:47.848Z,21.10
2019-04-07T11:25:09.762Z,21.20
2019-04-07T11:27:42.164Z,21.60
2019-04-07T11:30:11.763Z,20.30
2019-04-07T11:33:10.661Z,20.80
2019-04-07T11:36:04.058Z,18.77
2019-04-07T11:38:34.287Z,19.73
2019-04-07T11:41:05.766Z,20.10
2019-04-07T11:43:15.548Z,20.80
2019-04-07T11:45:58.775Z,18.47
2019-04-07T11:48:25.805Z,18.83
2019-04-07T11:50:57.597Z,18.87
2019-04-07T11:53:13.446Z,17.63
2019-04-07T11:55:35.605Z,17.33
2019-04-07T11:58:58.952Z,20.60
2019-04-07T12:02:32.999Z,20.67
2019-04-07T12:05:28.738Z,17.90
2019-04-07T12:08:16.145Z,19.90
2019-04-07T12:10:54.846Z,18.07
2019-04-07T12:13:15.510Z,20.70
2019-04-07T12:15:46.375Z,19.30
2019-04-07T12:18:11.716Z,17.80
2019-04-07T12:20:53.934Z,17.03
2019-04-07T12:23:20.355Z,16.47
2019-04-07T12:29:35.765Z,16.63
2019-04-07T12:32:35.919Z,16.30
2019-04-07T12:39:04.519Z,15.33
2019-04-07T12:47:37.981Z,15.37
2019-04-07T12:49:13.452Z,15.53
2019-04-07T13:02:43.870Z,13.60
2019-04-07T13:06:25.330Z,14.60
2019-04-07T13:08:59.544Z,16.60
2019-04-07T13:11:37.270Z,15.10
2019-04-07T13:21:34.401Z,18.50
2019-04-07T14:19:49.738Z,14.80
2019-04-07T14:29:15.277Z,16.37
2019-04-07T14:32:24.996Z,16.70
2019-04-07T14:35:00.978Z,16.70
2019-04-07T14:37:43.918Z,13.70
2019-04-07T14:44:56.613Z,16.33
2019-04-07T14:54:18.505Z,14.87
2019-04-07T15:08:09.490Z,16.13
2019-04-07T15:10:45.064Z,17.03
2019-04-07T15:37:35.771Z,15.17
2019-04-07T15:41:19.655Z,19.00
2019-04-07T16:14:43.980Z,17.00
2019-04-07T16:20:31.657Z,16.00
2019-04-07T16:22:59.688Z,16.23
2019-04-07T16:25:49.050Z,15.50
2019-04-07T16:28:55.174Z,17.77
2019-04-07T16:31:47.752Z,15.43
2019-04-07T16:34:07.965Z,17.20
2019-04-07T16:36:44.319Z,16.03
2019-04-07T16:39:37.667Z,16.63
2019-04-07T16:42:11.012Z,17.13
2019-04-07T16:44:43.889Z,16.57
2019-04-07T16:46:44.694Z,16.37
2019-04-07T16:52:30.806Z,16.30
2019-04-07T16:55:30.122Z,15.97
2019-04-07T17:00:39.818Z,15.33
2019-04-07T17:03:17.948Z,14.13
2019-04-07T17:05:55.686Z,14.70
2019-04-07T17:09:15.186Z,14.63
2019-04-07T17:15:12.295Z,14.50
2019-04-07T17:18:00.281Z,14.73
2019-04-07T17:23:45.528Z,14.83
2019-04-07T17:25:54.761Z,14.70
2019-04-07T17:28:50.235Z,15.80
2019-04-07T17:32:16.865Z,16.67
2019-04-07T17:38:08.609Z,15.23
2019-04-07T17:40:55.255Z,16.03
2019-04-07T17:48:24.437Z,17.30
2019-04-07T17:50:18.585Z,17.40
2019-04-07T17:52:48.314Z,19.53
2019-04-07T17:59:48.453Z,21.30
2019-04-07T18:02:58.993Z,21.00
2019-04-07T18:05:10.353Z,21.07
2019-04-07T18:07:38.356Z,22.07
2019-04-07T18:13:43.318Z,22.67
2019-04-07T18:15:55.474Z,19.43
2019-04-07T18:18:51.729Z,20.60
2019-04-07T18:21:16.892Z,24.67
2019-04-07T18:25:31.889Z,20.27
2019-04-07T18:31:41.890Z,21.90
2019-04-07T18:34:34.665Z,21.87
2019-04-07T18:37:12.797Z,22.43
2019-04-07T18:40:04.689Z,21.43
2019-04-07T18:42:51.215Z,22.63
2019-04-07T18:55:13.853Z,20.80
2019-04-07T18:59:08.334Z,20.87
2019-04-07T19:12:07.972Z,20.40
2019-04-07T19:18:42.353Z,18.70
2019-04-07T19:24:44.557Z,19.07
2019-04-07T19:27:44.784Z,19.03
2019-04-07T19:33:09.921Z,19.37
2019-04-07T19:39:53.319Z,20.87
2019-04-07T19:42:09.835Z,22.07
2019-04-07T19:45:22.879Z,18.63
2019-04-07T19:48:03.983Z,19.00
2019-04-07T20:01:00.106Z,17.97
2019-04-07T20:06:42.587Z,19.87
2019-04-07T20:09:47.950Z,22.90
2019-04-07T20:13:05.470Z,22.27
2019-04-07T20:19:42.705Z,21.10
2019-04-07T20:22:27.193Z,21.20
2019-04-07T20:25:22.462Z,19.30
2019-04-07T20:28:11.909Z,21.30
2019-04-07T20:33:57.503Z,20.17
2019-04-07T20:40:11.411Z,19.60
2019-04-07T20:43:02.590Z,17.93
2019-04-07T20:45:58.608Z,19.17
2019-04-07T20:48:33.470Z,20.57
2019-04-07T20:51:29.608Z,19.40
2019-04-07T20:54:21.604Z,21.07
2019-04-07T20:56:58.377Z,18.83
2019-04-07T21:07:47.406Z,21.80
2019-04-07T21:11:04.711Z,20.70
2019-04-07T21:13:50.387Z,21.07
2019-04-07T21:17:17.423Z,22.77
2019-04-07T21:30:08.638Z,19.90
2019-04-07T21:39:20.330Z,22.50
2019-04-07T21:42:36.630Z,22.53
2019-04-07T21:49:02.415Z,21.87
2019-04-07T21:58:40.761Z,23.10
2019-04-07T22:12:25.785Z,21.57
2019-04-07T22:19:46.584Z,24.33
2019-04-07T22:43:51.943Z,24.13
2019-04-07T22:46:21.956Z,24.27
2019-04-07T22:48:48.037Z,27.03
2019-04-07T22:54:16.732Z,25.77
2019-04-07T22:59:19.631Z,25.50
2019-04-07T23:02:24.132Z,25.90
2019-04-07T23:04:30.827Z,26.70
2019-04-07T23:06:50.059Z,26.57
2019-04-07T23:09:11.194Z,28.73
2019-04-07T23:11:50.278Z,26.10
2019-04-07T23:23:32.226Z,27.07
2019-04-07T23:29:14.922Z,27.17
2019-04-07T23:31:32.289Z,26.50
2019-04-07T23:34:17.137Z,27.27
2019-04-07T23:39:54.804Z,28.20
2019-04-07T23:49:34.280Z,29.20
2019-04-07T23:52:19.051Z,29.80
2019-04-07T23:52:41.128Z,29.10
